sensor_id;sensor_type;location;lat;lon;timestamp;P1;durP1;ratioP1;P2;durP2;ratioP2
25449;SDS011;13371;52.080;5.624;2022-09-16T00:00:58;6.10;;;1.15;;
25449;SDS011;13371;52.080;5.624;2022-09-16T00:03:23;5.88;;;1.38;;
25449;SDS011;13371;52.080;5.624;2022-09-16T00:05:50;4.68;;;1.13;;
25449;SDS011;13371;52.080;5.624;2022-09-16T00:08:17;5.63;;;1.40;;
25449;SDS011;13371;52.080;5.624;2022-09-16T00:10:45;2.67;;;0.82;;
25449;SDS011;13371;52.080;5.624;2022-09-16T00:13:11;5.00;;;1.15;;
25449;SDS011;13371;52.080;5.624;2022-09-16T00:15:40;4.25;;;1.23;;
25449;SDS011;13371;52.080;5.624;2022-09-16T00:18:06;6.38;;;1.30;;
25449;SDS011;13371;52.080;5.624;2022-09-16T00:20:32;9.80;;;1.42;;
25449;SDS011;13371;52.080;5.624;2022-09-16T00:22:57;11.15;;;1.27;;
25449;SDS011;13371;52.080;5.624;2022-09-16T00:25:23;7.25;;;1.30;;
25449;SDS011;13371;52.080;5.624;2022-09-16T00:27:48;8.05;;;1.65;;
25449;SDS011;13371;52.080;5.624;2022-09-16T00:30:14;5.15;;;1.17;;
25449;SDS011;13371;52.080;5.624;2022-09-16T00:32:40;4.65;;;1.20;;
25449;SDS011;13371;52.080;5.624;2022-09-16T00:35:06;3.85;;;1.50;;
25449;SDS011;13371;52.080;5.624;2022-09-16T00:37:32;7.15;;;1.33;;
25449;SDS011;13371;52.080;5.624;2022-09-16T00:39:57;9.70;;;1.30;;
25449;SDS011;13371;52.080;5.624;2022-09-16T00:42:23;5.10;;;0.95;;
25449;SDS011;13371;52.080;5.624;2022-09-16T00:47:24;3.92;;;1.23;;
25449;SDS011;13371;52.080;5.624;2022-09-16T00:49:51;5.60;;;1.30;;
25449;SDS011;13371;52.080;5.624;2022-09-16T00:52:20;5.45;;;1.40;;
25449;SDS011;13371;52.080;5.624;2022-09-16T00:54:46;4.93;;;1.27;;
25449;SDS011;13371;52.080;5.624;2022-09-16T00:57:12;5.78;;;1.67;;
25449;SDS011;13371;52.080;5.624;2022-09-16T00:59:43;4.20;;;1.23;;
25449;SDS011;13371;52.080;5.624;2022-09-16T01:02:15;3.10;;;1.30;;
25449;SDS011;13371;52.080;5.624;2022-09-16T01:04:47;5.25;;;1.35;;
25449;SDS011;13371;52.080;5.624;2022-09-16T01:07:26;3.70;;;1.13;;
25449;SDS011;13371;52.080;5.624;2022-09-16T01:09:57;5.25;;;1.27;;
25449;SDS011;13371;52.080;5.624;2022-09-16T01:12:23;7.88;;;1.80;;
25449;SDS011;13371;52.080;5.624;2022-09-16T01:14:52;9.27;;;1.30;;
25449;SDS011;13371;52.080;5.624;2022-09-16T01:20:09;7.40;;;1.25;;
25449;SDS011;13371;52.080;5.624;2022-09-16T01:22:51;5.75;;;1.48;;
25449;SDS011;13371;52.080;5.624;2022-09-16T01:31:33;7.75;;;1.27;;
25449;SDS011;13371;52.080;5.624;2022-09-16T01:39:17;6.38;;;2.03;;
25449;SDS011;13371;52.080;5.624;2022-09-16T01:45:22;8.75;;;1.70;;
25449;SDS011;13371;52.080;5.624;2022-09-16T01:50:41;7.55;;;1.35;;
25449;SDS011;13371;52.080;5.624;2022-09-16T01:53:17;6.72;;;1.27;;
25449;SDS011;13371;52.080;5.624;2022-09-16T01:55:59;4.45;;;1.17;;
25449;SDS011;13371;52.080;5.624;2022-09-16T02:01:22;4.88;;;1.40;;
25449;SDS011;13371;52.080;5.624;2022-09-16T02:03:57;6.82;;;1.38;;
25449;SDS011;13371;52.080;5.624;2022-09-16T02:06:26;7.15;;;1.30;;
25449;SDS011;13371;52.080;5.624;2022-09-16T02:08:55;8.32;;;1.67;;
25449;SDS011;13371;52.080;5.624;2022-09-16T02:11:23;5.93;;;1.63;;
25449;SDS011;13371;52.080;5.624;2022-09-16T02:13:54;4.35;;;1.50;;
25449;SDS011;13371;52.080;5.624;2022-09-16T02:16:36;4.43;;;1.25;;
25449;SDS011;13371;52.080;5.624;2022-09-16T02:19:11;5.10;;;1.10;;
25449;SDS011;13371;52.080;5.624;2022-09-16T02:21:44;3.83;;;1.20;;
25449;SDS011;13371;52.080;5.624;2022-09-16T02:24:15;3.10;;;1.27;;
25449;SDS011;13371;52.080;5.624;2022-09-16T02:26:47;2.67;;;1.10;;
25449;SDS011;13371;52.080;5.624;2022-09-16T02:29:19;2.90;;;1.25;;
25449;SDS011;13371;52.080;5.624;2022-09-16T02:31:51;5.13;;;1.13;;
25449;SDS011;13371;52.080;5.624;2022-09-16T02:34:31;2.60;;;1.10;;
25449;SDS011;13371;52.080;5.624;2022-09-16T02:37:03;3.05;;;1.45;;
25449;SDS011;13371;52.080;5.624;2022-09-16T02:39:35;6.35;;;1.35;;
25449;SDS011;13371;52.080;5.624;2022-09-16T02:42:03;3.75;;;1.27;;
25449;SDS011;13371;52.080;5.624;2022-09-16T02:44:30;8.32;;;1.60;;
25449;SDS011;13371;52.080;5.624;2022-09-16T02:46:59;4.45;;;1.95;;
25449;SDS011;13371;52.080;5.624;2022-09-16T02:57:30;4.30;;;1.40;;
25449;SDS011;13371;52.080;5.624;2022-09-16T02:59:56;6.30;;;1.20;;
25449;SDS011;13371;52.080;5.624;2022-09-16T03:02:22;3.65;;;1.42;;
25449;SDS011;13371;52.080;5.624;2022-09-16T03:04:48;4.07;;;1.30;;
25449;SDS011;13371;52.080;5.624;2022-09-16T03:07:13;2.83;;;1.08;;
25449;SDS011;13371;52.080;5.624;2022-09-16T03:09:43;6.03;;;1.40;;
25449;SDS011;13371;52.080;5.624;2022-09-16T03:12:34;6.60;;;1.35;;
25449;SDS011;13371;52.080;5.624;2022-09-16T03:20:59;6.65;;;1.30;;
25449;SDS011;13371;52.080;5.624;2022-09-16T03:26:44;9.63;;;1.48;;
25449;SDS011;13371;52.080;5.624;2022-09-16T03:29:11;7.63;;;1.90;;
25449;SDS011;13371;52.080;5.624;2022-09-16T03:34:25;7.53;;;1.27;;
25449;SDS011;13371;52.080;5.624;2022-09-16T03:36:53;5.55;;;1.83;;
25449;SDS011;13371;52.080;5.624;2022-09-16T03:39:23;4.45;;;1.40;;
25449;SDS011;13371;52.080;5.624;2022-09-16T03:41:49;3.72;;;1.20;;
25449;SDS011;13371;52.080;5.624;2022-09-16T03:44:15;4.85;;;1.35;;
25449;SDS011;13371;52.080;5.624;2022-09-16T03:46:41;8.88;;;1.33;;
25449;SDS011;13371;52.080;5.624;2022-09-16T03:49:06;3.78;;;1.15;;
25449;SDS011;13371;52.080;5.624;2022-09-16T03:51:32;8.32;;;1.20;;
25449;SDS011;13371;52.080;5.624;2022-09-16T03:53:57;5.55;;;1.33;;
25449;SDS011;13371;52.080;5.624;2022-09-16T03:56:23;3.95;;;1.23;;
25449;SDS011;13371;52.080;5.624;2022-09-16T03:58:49;6.57;;;1.30;;
25449;SDS011;13371;52.080;5.624;2022-09-16T04:01:15;7.65;;;1.17;;
25449;SDS011;13371;52.080;5.624;2022-09-16T04:03:41;3.10;;;1.20;;
25449;SDS011;13371;52.080;5.624;2022-09-16T04:06:06;7.18;;;1.40;;
25449;SDS011;13371;52.080;5.624;2022-09-16T04:08:33;3.17;;;1.40;;
25449;SDS011;13371;52.080;5.624;2022-09-16T04:10:59;4.03;;;1.33;;
25449;SDS011;13371;52.080;5.624;2022-09-16T04:13:30;5.10;;;1.27;;
25449;SDS011;13371;52.080;5.624;2022-09-16T04:15:57;4.85;;;0.90;;
25449;SDS011;13371;52.080;5.624;2022-09-16T04:18:23;7.28;;;1.58;;
25449;SDS011;13371;52.080;5.624;2022-09-16T04:20:49;3.90;;;1.20;;
25449;SDS011;13371;52.080;5.624;2022-09-16T04:23:15;6.05;;;1.33;;
25449;SDS011;13371;52.080;5.624;2022-09-16T04:25:41;3.15;;;0.85;;
25449;SDS011;13371;52.080;5.624;2022-09-16T04:28:06;8.73;;;1.65;;
25449;SDS011;13371;52.080;5.624;2022-09-16T04:30:32;3.35;;;1.27;;
25449;SDS011;13371;52.080;5.624;2022-09-16T04:32:57;4.53;;;1.02;;
25449;SDS011;13371;52.080;5.624;2022-09-16T04:35:23;4.93;;;1.20;;
25449;SDS011;13371;52.080;5.624;2022-09-16T04:37:50;5.13;;;1.10;;
25449;SDS011;13371;52.080;5.624;2022-09-16T04:40:16;4.53;;;1.20;;
25449;SDS011;13371;52.080;5.624;2022-09-16T04:42:52;5.07;;;1.15;;
25449;SDS011;13371;52.080;5.624;2022-09-16T04:45:17;3.28;;;1.50;;
25449;SDS011;13371;52.080;5.624;2022-09-16T04:47:44;4.18;;;1.08;;
25449;SDS011;13371;52.080;5.624;2022-09-16T04:50:09;6.38;;;1.20;;
25449;SDS011;13371;52.080;5.624;2022-09-16T04:52:35;3.80;;;1.45;;
25449;SDS011;13371;52.080;5.624;2022-09-16T04:55:00;6.85;;;1.38;;
25449;SDS011;13371;52.080;5.624;2022-09-16T04:57:29;3.85;;;1.10;;
25449;SDS011;13371;52.080;5.624;2022-09-16T04:59:56;3.80;;;1.25;;
25449;SDS011;13371;52.080;5.624;2022-09-16T05:02:22;4.53;;;1.10;;
25449;SDS011;13371;52.080;5.624;2022-09-16T05:04:48;3.55;;;1.45;;
25449;SDS011;13371;52.080;5.624;2022-09-16T05:07:14;3.17;;;1.13;;
25449;SDS011;13371;52.080;5.624;2022-09-16T05:09:39;1.95;;;1.23;;
25449;SDS011;13371;52.080;5.624;2022-09-16T05:12:05;8.10;;;1.30;;
25449;SDS011;13371;52.080;5.624;2022-09-16T05:14:31;1.73;;;1.08;;
25449;SDS011;13371;52.080;5.624;2022-09-16T05:16:56;7.75;;;1.77;;
25449;SDS011;13371;52.080;5.624;2022-09-16T05:19:22;5.28;;;1.58;;
25449;SDS011;13371;52.080;5.624;2022-09-16T05:21:48;7.88;;;1.70;;
25449;SDS011;13371;52.080;5.624;2022-09-16T05:24:13;4.53;;;1.42;;
25449;SDS011;13371;52.080;5.624;2022-09-16T05:26:40;4.85;;;1.40;;
25449;SDS011;13371;52.080;5.624;2022-09-16T05:29:07;4.60;;;1.15;;
25449;SDS011;13371;52.080;5.624;2022-09-16T05:31:41;10.48;;;1.50;;
25449;SDS011;13371;52.080;5.624;2022-09-16T05:34:11;8.63;;;1.27;;
25449;SDS011;13371;52.080;5.624;2022-09-16T05:36:39;3.70;;;1.00;;
25449;SDS011;13371;52.080;5.624;2022-09-16T05:39:07;5.03;;;1.55;;
25449;SDS011;13371;52.080;5.624;2022-09-16T05:41:35;4.88;;;0.93;;
25449;SDS011;13371;52.080;5.624;2022-09-16T05:44:00;6.18;;;1.17;;
25449;SDS011;13371;52.080;5.624;2022-09-16T05:46:26;6.82;;;1.30;;
25449;SDS011;13371;52.080;5.624;2022-09-16T05:48:53;3.38;;;1.52;;
25449;SDS011;13371;52.080;5.624;2022-09-16T05:51:19;4.88;;;1.30;;
25449;SDS011;13371;52.080;5.624;2022-09-16T05:53:47;3.85;;;1.38;;
25449;SDS011;13371;52.080;5.624;2022-09-16T05:56:14;3.65;;;1.60;;
25449;SDS011;13371;52.080;5.624;2022-09-16T05:58:50;2.65;;;1.40;;
25449;SDS011;13371;52.080;5.624;2022-09-16T06:01:18;4.40;;;1.30;;
25449;SDS011;13371;52.080;5.624;2022-09-16T06:03:45;3.03;;;1.50;;
25449;SDS011;13371;52.080;5.624;2022-09-16T06:06:13;3.15;;;1.70;;
25449;SDS011;13371;52.080;5.624;2022-09-16T06:11:11;3.70;;;1.40;;
25449;SDS011;13371;52.080;5.624;2022-09-16T06:13:37;5.22;;;1.55;;
25449;SDS011;13371;52.080;5.624;2022-09-16T06:16:03;6.07;;;1.40;;
25449;SDS011;13371;52.080;5.624;2022-09-16T06:18:30;6.43;;;1.27;;
25449;SDS011;13371;52.080;5.624;2022-09-16T06:20:57;11.48;;;1.60;;
25449;SDS011;13371;52.080;5.624;2022-09-16T06:23:26;7.50;;;1.55;;
25449;SDS011;13371;52.080;5.624;2022-09-16T06:26:01;7.32;;;1.63;;
25449;SDS011;13371;52.080;5.624;2022-09-16T06:28:31;5.78;;;1.20;;
25449;SDS011;13371;52.080;5.624;2022-09-16T06:31:07;3.90;;;1.08;;
25449;SDS011;13371;52.080;5.624;2022-09-16T06:33:40;4.68;;;1.27;;
25449;SDS011;13371;52.080;5.624;2022-09-16T06:36:07;4.45;;;1.10;;
25449;SDS011;13371;52.080;5.624;2022-09-16T06:38:35;4.43;;;1.38;;
25449;SDS011;13371;52.080;5.624;2022-09-16T06:41:09;7.60;;;1.88;;
25449;SDS011;13371;52.080;5.624;2022-09-16T06:43:36;5.40;;;1.25;;
25449;SDS011;13371;52.080;5.624;2022-09-16T06:46:12;6.32;;;1.23;;
25449;SDS011;13371;52.080;5.624;2022-09-16T06:48:41;4.40;;;0.90;;
25449;SDS011;13371;52.080;5.624;2022-09-16T06:51:11;4.35;;;1.23;;
25449;SDS011;13371;52.080;5.624;2022-09-16T06:53:39;4.18;;;1.15;;
25449;SDS011;13371;52.080;5.624;2022-09-16T06:56:06;4.80;;;1.17;;
25449;SDS011;13371;52.080;5.624;2022-09-16T06:58:36;3.72;;;1.20;;
25449;SDS011;13371;52.080;5.624;2022-09-16T07:01:04;5.60;;;0.82;;
25449;SDS011;13371;52.080;5.624;2022-09-16T07:03:30;3.70;;;1.25;;
25449;SDS011;13371;52.080;5.624;2022-09-16T07:05:59;11.80;;;1.40;;
25449;SDS011;13371;52.080;5.624;2022-09-16T07:08:35;7.30;;;1.10;;
25449;SDS011;13371;52.080;5.624;2022-09-16T07:11:06;7.72;;;1.13;;
25449;SDS011;13371;52.080;5.624;2022-09-16T07:13:34;4.35;;;1.10;;
25449;SDS011;13371;52.080;5.624;2022-09-16T07:16:00;4.32;;;1.13;;
25449;SDS011;13371;52.080;5.624;2022-09-16T07:18:36;3.58;;;0.73;;
25449;SDS011;13371;52.080;5.624;2022-09-16T07:21:03;5.88;;;1.02;;
25449;SDS011;13371;52.080;5.624;2022-09-16T07:23:31;5.10;;;1.00;;
25449;SDS011;13371;52.080;5.624;2022-09-16T07:25:58;7.45;;;1.08;;
25449;SDS011;13371;52.080;5.624;2022-09-16T07:28:25;4.13;;;1.17;;
25449;SDS011;13371;52.080;5.624;2022-09-16T07:30:51;3.65;;;1.00;;
25449;SDS011;13371;52.080;5.624;2022-09-16T07:33:17;6.32;;;1.10;;
25449;SDS011;13371;52.080;5.624;2022-09-16T07:35:42;5.05;;;0.90;;
25449;SDS011;13371;52.080;5.624;2022-09-16T07:38:08;6.63;;;0.85;;
25449;SDS011;13371;52.080;5.624;2022-09-16T07:40:33;2.83;;;0.95;;
25449;SDS011;13371;52.080;5.624;2022-09-16T07:42:59;8.13;;;1.58;;
25449;SDS011;13371;52.080;5.624;2022-09-16T07:45:24;7.00;;;1.65;;
25449;SDS011;13371;52.080;5.624;2022-09-16T07:47:50;5.40;;;1.20;;
25449;SDS011;13371;52.080;5.624;2022-09-16T07:50:15;8.13;;;1.60;;
25449;SDS011;13371;52.080;5.624;2022-09-16T07:52:41;4.15;;;0.80;;
25449;SDS011;13371;52.080;5.624;2022-09-16T07:55:07;8.00;;;1.40;;
25449;SDS011;13371;52.080;5.624;2022-09-16T07:57:32;7.28;;;1.27;;
25449;SDS011;13371;52.080;5.624;2022-09-16T07:59:58;5.32;;;0.80;;
25449;SDS011;13371;52.080;5.624;2022-09-16T08:02:24;2.90;;;0.75;;
25449;SDS011;13371;52.080;5.624;2022-09-16T08:04:50;6.60;;;0.98;;
25449;SDS011;13371;52.080;5.624;2022-09-16T08:07:16;5.32;;;0.80;;
25449;SDS011;13371;52.080;5.624;2022-09-16T08:09:42;7.15;;;0.95;;
25449;SDS011;13371;52.080;5.624;2022-09-16T08:12:07;4.07;;;0.73;;
25449;SDS011;13371;52.080;5.624;2022-09-16T08:14:34;7.00;;;0.85;;
25449;SDS011;13371;52.080;5.624;2022-09-16T08:17:00;2.42;;;0.95;;
25449;SDS011;13371;52.080;5.624;2022-09-16T08:19:27;4.13;;;1.00;;
25449;SDS011;13371;52.080;5.624;2022-09-16T08:21:53;4.70;;;0.75;;
25449;SDS011;13371;52.080;5.624;2022-09-16T08:24:19;3.53;;;0.73;;
25449;SDS011;13371;52.080;5.624;2022-09-16T08:26:44;2.13;;;0.50;;
25449;SDS011;13371;52.080;5.624;2022-09-16T08:29:10;3.78;;;0.75;;
25449;SDS011;13371;52.080;5.624;2022-09-16T08:31:36;3.65;;;0.90;;
25449;SDS011;13371;52.080;5.624;2022-09-16T08:34:02;4.97;;;0.80;;
25449;SDS011;13371;52.080;5.624;2022-09-16T08:36:28;3.45;;;0.73;;
25449;SDS011;13371;52.080;5.624;2022-09-16T08:38:54;5.57;;;0.70;;
25449;SDS011;13371;52.080;5.624;2022-09-16T08:46:57;3.95;;;0.95;;
25449;SDS011;13371;52.080;5.624;2022-09-16T08:51:57;3.22;;;0.50;;
25449;SDS011;13371;52.080;5.624;2022-09-16T08:54:30;4.35;;;0.57;;
25449;SDS011;13371;52.080;5.624;2022-09-16T08:57:18;1.60;;;0.43;;
25449;SDS011;13371;52.080;5.624;2022-09-16T09:00:00;3.67;;;0.65;;
25449;SDS011;13371;52.080;5.624;2022-09-16T09:05:27;3.20;;;0.50;;
25449;SDS011;13371;52.080;5.624;2022-09-16T09:10:50;4.18;;;0.40;;
25449;SDS011;13371;52.080;5.624;2022-09-16T09:16:06;2.88;;;0.80;;
25449;SDS011;13371;52.080;5.624;2022-09-16T09:19:05;1.92;;;0.50;;
25449;SDS011;13371;52.080;5.624;2022-09-16T09:21:47;3.97;;;0.50;;
25449;SDS011;13371;52.080;5.624;2022-09-16T09:24:18;5.07;;;0.70;;
25449;SDS011;13371;52.080;5.624;2022-09-16T09:27:03;4.93;;;0.85;;
25449;SDS011;13371;52.080;5.624;2022-09-16T09:32:23;2.03;;;0.60;;
25449;SDS011;13371;52.080;5.624;2022-09-16T09:37:33;4.22;;;0.75;;
25449;SDS011;13371;52.080;5.624;2022-09-16T09:40:42;2.15;;;0.45;;
25449;SDS011;13371;52.080;5.624;2022-09-16T09:43:26;3.67;;;0.85;;
25449;SDS011;13371;52.080;5.624;2022-09-16T09:46:10;3.58;;;0.50;;
25449;SDS011;13371;52.080;5.624;2022-09-16T09:48:54;6.32;;;1.70;;
25449;SDS011;13371;52.080;5.624;2022-09-16T09:51:54;6.55;;;0.95;;
25449;SDS011;13371;52.080;5.624;2022-09-16T09:56:50;4.10;;;0.70;;
25449;SDS011;13371;52.080;5.624;2022-09-16T10:04:37;2.47;;;0.47;;
25449;SDS011;13371;52.080;5.624;2022-09-16T10:07:03;3.45;;;0.47;;
25449;SDS011;13371;52.080;5.624;2022-09-16T10:09:29;4.20;;;0.60;;
25449;SDS011;13371;52.080;5.624;2022-09-16T10:11:55;2.30;;;0.70;;
25449;SDS011;13371;52.080;5.624;2022-09-16T10:14:35;3.42;;;0.80;;
25449;SDS011;13371;52.080;5.624;2022-09-16T10:17:03;9.00;;;0.95;;
25449;SDS011;13371;52.080;5.624;2022-09-16T10:19:49;1.30;;;0.40;;
25449;SDS011;13371;52.080;5.624;2022-09-16T10:24:52;3.58;;;1.02;;
25449;SDS011;13371;52.080;5.624;2022-09-16T10:30:01;2.67;;;0.52;;
25449;SDS011;13371;52.080;5.624;2022-09-16T10:32:31;1.37;;;0.43;;
25449;SDS011;13371;52.080;5.624;2022-09-16T10:35:05;3.13;;;0.50;;
25449;SDS011;13371;52.080;5.624;2022-09-16T10:37:31;2.55;;;0.60;;
25449;SDS011;13371;52.080;5.624;2022-09-16T10:39:57;3.45;;;0.70;;
25449;SDS011;13371;52.080;5.624;2022-09-16T10:42:23;3.55;;;0.57;;
25449;SDS011;13371;52.080;5.624;2022-09-16T10:44:52;5.80;;;1.10;;
25449;SDS011;13371;52.080;5.624;2022-09-16T10:47:21;1.75;;;0.40;;
25449;SDS011;13371;52.080;5.624;2022-09-16T10:49:51;4.05;;;0.55;;
25449;SDS011;13371;52.080;5.624;2022-09-16T10:52:21;5.38;;;0.50;;
25449;SDS011;13371;52.080;5.624;2022-09-16T10:54:46;2.88;;;0.57;;
25449;SDS011;13371;52.080;5.624;2022-09-16T10:57:26;2.00;;;0.52;;
25449;SDS011;13371;52.080;5.624;2022-09-16T10:59:58;3.72;;;0.43;;
25449;SDS011;13371;52.080;5.624;2022-09-16T11:02:49;1.95;;;0.50;;
25449;SDS011;13371;52.080;5.624;2022-09-16T11:05:45;2.25;;;0.50;;
25449;SDS011;13371;52.080;5.624;2022-09-16T11:08:22;4.95;;;0.73;;
25449;SDS011;13371;52.080;5.624;2022-09-16T11:10:58;0.70;;;0.40;;
25449;SDS011;13371;52.080;5.624;2022-09-16T11:24:36;2.97;;;0.40;;
25449;SDS011;13371;52.080;5.624;2022-09-16T11:27:20;1.17;;;0.30;;
25449;SDS011;13371;52.080;5.624;2022-09-16T11:35:34;2.38;;;0.50;;
25449;SDS011;13371;52.080;5.624;2022-09-16T11:44:05;4.93;;;1.08;;
25449;SDS011;13371;52.080;5.624;2022-09-16T11:55:31;5.18;;;0.73;;
25449;SDS011;13371;52.080;5.624;2022-09-16T12:01:16;4.35;;;0.90;;
25449;SDS011;13371;52.080;5.624;2022-09-16T12:06:19;9.05;;;0.77;;
25449;SDS011;13371;52.080;5.624;2022-09-16T12:11:18;8.93;;;1.15;;
25449;SDS011;13371;52.080;5.624;2022-09-16T12:13:49;2.50;;;0.73;;
25449;SDS011;13371;52.080;5.624;2022-09-16T12:16:24;4.43;;;1.05;;
25449;SDS011;13371;52.080;5.624;2022-09-16T12:18:57;5.40;;;0.80;;
25449;SDS011;13371;52.080;5.624;2022-09-16T12:21:28;4.63;;;1.10;;
25449;SDS011;13371;52.080;5.624;2022-09-16T12:32:19;3.13;;;0.60;;
25449;SDS011;13371;52.080;5.624;2022-09-16T12:35:16;3.72;;;0.85;;
25449;SDS011;13371;52.080;5.624;2022-09-16T12:37:55;4.63;;;1.20;;
25449;SDS011;13371;52.080;5.624;2022-09-16T12:43:01;6.50;;;0.70;;
25449;SDS011;13371;52.080;5.624;2022-09-16T12:55:59;7.65;;;1.45;;
25449;SDS011;13371;52.080;5.624;2022-09-16T13:04:37;5.47;;;0.68;;
25449;SDS011;13371;52.080;5.624;2022-09-16T13:06:46;6.45;;;0.73;;
25449;SDS011;13371;52.080;5.624;2022-09-16T13:11:56;6.40;;;1.15;;
25449;SDS011;13371;52.080;5.624;2022-09-16T13:14:25;6.75;;;1.08;;
25449;SDS011;13371;52.080;5.624;2022-09-16T13:16:58;15.13;;;1.67;;
25449;SDS011;13371;52.080;5.624;2022-09-16T13:27:27;4.72;;;0.90;;
25449;SDS011;13371;52.080;5.624;2022-09-16T13:30:32;8.35;;;0.82;;
25449;SDS011;13371;52.080;5.624;2022-09-16T13:33:01;8.13;;;1.50;;
25449;SDS011;13371;52.080;5.624;2022-09-16T13:35:34;4.53;;;0.75;;
25449;SDS011;13371;52.080;5.624;2022-09-16T13:40:59;5.18;;;1.25;;
25449;SDS011;13371;52.080;5.624;2022-09-16T13:43:33;5.30;;;0.65;;
25449;SDS011;13371;52.080;5.624;2022-09-16T13:46:27;4.00;;;0.93;;
25449;SDS011;13371;52.080;5.624;2022-09-16T13:51:27;7.45;;;0.95;;
25449;SDS011;13371;52.080;5.624;2022-09-16T13:53:53;3.17;;;0.60;;
25449;SDS011;13371;52.080;5.624;2022-09-16T13:56:41;4.13;;;1.02;;
25449;SDS011;13371;52.080;5.624;2022-09-16T13:59:36;8.57;;;1.20;;
25449;SDS011;13371;52.080;5.624;2022-09-16T14:07:40;4.57;;;0.88;;
25449;SDS011;13371;52.080;5.624;2022-09-16T14:10:18;5.68;;;0.80;;
25449;SDS011;13371;52.080;5.624;2022-09-16T14:13:07;8.57;;;1.20;;
25449;SDS011;13371;52.080;5.624;2022-09-16T14:15:39;9.15;;;1.33;;
25449;SDS011;13371;52.080;5.624;2022-09-16T14:18:12;4.43;;;0.90;;
25449;SDS011;13371;52.080;5.624;2022-09-16T14:23:54;7.30;;;1.00;;
25449;SDS011;13371;52.080;5.624;2022-09-16T14:26:30;3.53;;;0.73;;
25449;SDS011;13371;52.080;5.624;2022-09-16T14:29:02;5.50;;;0.90;;
25449;SDS011;13371;52.080;5.624;2022-09-16T14:31:29;4.88;;;0.90;;
25449;SDS011;13371;52.080;5.624;2022-09-16T14:33:57;4.90;;;0.82;;
25449;SDS011;13371;52.080;5.624;2022-09-16T14:36:29;3.70;;;0.60;;
25449;SDS011;13371;52.080;5.624;2022-09-16T14:38:59;4.47;;;0.98;;
25449;SDS011;13371;52.080;5.624;2022-09-16T14:44:34;5.78;;;0.68;;
25449;SDS011;13371;52.080;5.624;2022-09-16T14:49:46;2.63;;;0.47;;
25449;SDS011;13371;52.080;5.624;2022-09-16T14:52:27;6.75;;;0.98;;
25449;SDS011;13371;52.080;5.624;2022-09-16T14:54:57;6.78;;;0.75;;
25449;SDS011;13371;52.080;5.624;2022-09-16T14:57:24;1.58;;;0.47;;
25449;SDS011;13371;52.080;5.624;2022-09-16T14:59:51;5.13;;;1.02;;
25449;SDS011;13371;52.080;5.624;2022-09-16T15:02:39;6.82;;;0.85;;
25449;SDS011;13371;52.080;5.624;2022-09-16T15:07:50;3.65;;;0.82;;
25449;SDS011;13371;52.080;5.624;2022-09-16T15:10:19;6.55;;;1.08;;
25449;SDS011;13371;52.080;5.624;2022-09-16T15:15:20;4.40;;;0.75;;
25449;SDS011;13371;52.080;5.624;2022-09-16T15:18:20;5.35;;;1.15;;
25449;SDS011;13371;52.080;5.624;2022-09-16T15:20:54;11.18;;;1.30;;
25449;SDS011;13371;52.080;5.624;2022-09-16T15:23:26;7.88;;;1.30;;
25449;SDS011;13371;52.080;5.624;2022-09-16T15:25:55;7.85;;;1.20;;
25449;SDS011;13371;52.080;5.624;2022-09-16T15:28:23;8.40;;;1.48;;
25449;SDS011;13371;52.080;5.624;2022-09-16T15:30:50;8.60;;;1.23;;
25449;SDS011;13371;52.080;5.624;2022-09-16T15:35:58;9.68;;;1.73;;
25449;SDS011;13371;52.080;5.624;2022-09-16T15:38:25;12.98;;;1.90;;
25449;SDS011;13371;52.080;5.624;2022-09-16T15:41:01;9.02;;;1.38;;
25449;SDS011;13371;52.080;5.624;2022-09-16T15:43:36;8.25;;;1.40;;
25449;SDS011;13371;52.080;5.624;2022-09-16T15:46:04;8.05;;;1.00;;
25449;SDS011;13371;52.080;5.624;2022-09-16T15:48:47;8.80;;;1.30;;
25449;SDS011;13371;52.080;5.624;2022-09-16T15:51:35;9.80;;;1.50;;
25449;SDS011;13371;52.080;5.624;2022-09-16T15:56:49;13.25;;;1.88;;
25449;SDS011;13371;52.080;5.624;2022-09-16T16:02:20;8.18;;;1.25;;
25449;SDS011;13371;52.080;5.624;2022-09-16T16:04:47;6.55;;;1.17;;
25449;SDS011;13371;52.080;5.624;2022-09-16T16:07:13;5.22;;;1.10;;
25449;SDS011;13371;52.080;5.624;2022-09-16T16:10:20;5.78;;;0.90;;
25449;SDS011;13371;52.080;5.624;2022-09-16T16:12:51;2.13;;;0.85;;
25449;SDS011;13371;52.080;5.624;2022-09-16T16:15:24;4.88;;;1.02;;
25449;SDS011;13371;52.080;5.624;2022-09-16T16:18:08;5.32;;;1.00;;
25449;SDS011;13371;52.080;5.624;2022-09-16T16:20:35;5.57;;;1.48;;
25449;SDS011;13371;52.080;5.624;2022-09-16T16:23:01;7.22;;;2.35;;
25449;SDS011;13371;52.080;5.624;2022-09-16T16:25:27;7.32;;;1.23;;
25449;SDS011;13371;52.080;5.624;2022-09-16T16:27:53;7.40;;;1.10;;
25449;SDS011;13371;52.080;5.624;2022-09-16T16:30:18;14.75;;;1.52;;
25449;SDS011;13371;52.080;5.624;2022-09-16T16:32:44;7.57;;;1.20;;
25449;SDS011;13371;52.080;5.624;2022-09-16T16:35:11;6.13;;;1.08;;
25449;SDS011;13371;52.080;5.624;2022-09-16T16:37:37;7.68;;;1.40;;
25449;SDS011;13371;52.080;5.624;2022-09-16T16:40:03;11.90;;;1.83;;
25449;SDS011;13371;52.080;5.624;2022-09-16T16:42:30;12.20;;;1.50;;
25449;SDS011;13371;52.080;5.624;2022-09-16T16:44:56;9.70;;;1.45;;
25449;SDS011;13371;52.080;5.624;2022-09-16T16:47:21;5.10;;;1.35;;
25449;SDS011;13371;52.080;5.624;2022-09-16T16:49:47;7.47;;;1.10;;
25449;SDS011;13371;52.080;5.624;2022-09-16T16:52:14;8.30;;;1.17;;
25449;SDS011;13371;52.080;5.624;2022-09-16T16:54:40;11.15;;;1.75;;
25449;SDS011;13371;52.080;5.624;2022-09-16T16:57:07;9.43;;;1.20;;
25449;SDS011;13371;52.080;5.624;2022-09-16T16:59:33;9.68;;;1.40;;
25449;SDS011;13371;52.080;5.624;2022-09-16T17:01:59;13.38;;;1.98;;
25449;SDS011;13371;52.080;5.624;2022-09-16T17:04:24;10.27;;;1.58;;
25449;SDS011;13371;52.080;5.624;2022-09-16T17:06:50;10.93;;;1.52;;
25449;SDS011;13371;52.080;5.624;2022-09-16T17:09:16;9.57;;;1.58;;
25449;SDS011;13371;52.080;5.624;2022-09-16T17:11:55;10.93;;;1.60;;
25449;SDS011;13371;52.080;5.624;2022-09-16T17:14:22;11.55;;;1.98;;
25449;SDS011;13371;52.080;5.624;2022-09-16T17:16:49;10.20;;;1.98;;
25449;SDS011;13371;52.080;5.624;2022-09-16T17:19:16;7.55;;;1.85;;
25449;SDS011;13371;52.080;5.624;2022-09-16T17:21:43;9.63;;;2.03;;
25449;SDS011;13371;52.080;5.624;2022-09-16T17:24:10;11.60;;;2.22;;
25449;SDS011;13371;52.080;5.624;2022-09-16T17:26:36;7.85;;;1.60;;
25449;SDS011;13371;52.080;5.624;2022-09-16T17:29:02;10.80;;;1.67;;
25449;SDS011;13371;52.080;5.624;2022-09-16T17:31:28;12.80;;;2.03;;
25449;SDS011;13371;52.080;5.624;2022-09-16T17:33:57;11.73;;;1.80;;
25449;SDS011;13371;52.080;5.624;2022-09-16T17:36:26;15.70;;;1.92;;
25449;SDS011;13371;52.080;5.624;2022-09-16T17:38:54;12.38;;;2.30;;
25449;SDS011;13371;52.080;5.624;2022-09-16T17:41:24;15.10;;;1.95;;
25449;SDS011;13371;52.080;5.624;2022-09-16T17:43:53;9.88;;;2.10;;
25449;SDS011;13371;52.080;5.624;2022-09-16T17:46:20;16.15;;;2.13;;
25449;SDS011;13371;52.080;5.624;2022-09-16T17:48:47;14.35;;;1.35;;
25449;SDS011;13371;52.080;5.624;2022-09-16T17:51:14;10.38;;;1.55;;
25449;SDS011;13371;52.080;5.624;2022-09-16T17:53:40;14.98;;;2.47;;
25449;SDS011;13371;52.080;5.624;2022-09-16T17:56:07;14.63;;;2.10;;
25449;SDS011;13371;52.080;5.624;2022-09-16T17:58:36;13.82;;;1.65;;
25449;SDS011;13371;52.080;5.624;2022-09-16T18:01:09;13.25;;;2.05;;
25449;SDS011;13371;52.080;5.624;2022-09-16T18:03:46;6.70;;;1.45;;
25449;SDS011;13371;52.080;5.624;2022-09-16T18:08:50;12.30;;;1.60;;
25449;SDS011;13371;52.080;5.624;2022-09-16T18:11:16;12.13;;;2.25;;
25449;SDS011;13371;52.080;5.624;2022-09-16T18:13:44;10.25;;;1.33;;
25449;SDS011;13371;52.080;5.624;2022-09-16T18:16:12;16.38;;;2.53;;
25449;SDS011;13371;52.080;5.624;2022-09-16T18:18:40;16.25;;;2.38;;
25449;SDS011;13371;52.080;5.624;2022-09-16T18:21:08;9.30;;;1.83;;